Time;durP1;ratioP1;P1;durP2;ratioP2;P2;SDS_P1;SDS_P2;PMS_P1;PMS_P2;Temp;Humidity;BMP_temperature;BMP_pressure;BME280_temperature;BME280_humidity;BME280_pressure;Samples;Min_cycle;Max_cycle;Signal;HPM_P1;HPM_P2
2021/12/31 00:01:20;;;;;;;1.97;1.80;;;;;;;6.51;71.88;95057.41;2615062;47;20187;-77
2021/12/31 00:03:52;;;;;;;1.30;1.30;;;;;;;6.60;69.00;95040.34;2614756;54;20183;-78
2021/12/31 00:06:21;;;;;;;2.10;1.90;;;;;;;6.77;69.48;95070.06;2614715;47;20431;-78
2021/12/31 00:08:50;;;;;;;1.83;1.83;;;;;;;6.63;70.14;95024.28;2615323;47;20184;-81
2021/12/31 00:11:19;;;;;;;1.57;1.57;;;;;;;6.83;68.41;95073.22;2615468;47;20177;-82
2021/12/31 00:13:48;;;;;;;0.70;0.70;;;;;;;6.66;68.08;95077.25;2615879;47;20186;-82
2021/12/31 00:16:17;;;;;;;2.40;2.20;;;;;;;6.43;69.56;95060.50;2609914;54;20404;-82
2021/12/31 00:18:46;;;;;;;1.00;1.00;;;;;;;6.05;69.78;94975.50;2615239;47;20711;-82
2021/12/31 00:21:17;;;;;;;2.73;1.90;;;;;;;6.72;68.24;95057.13;2615643;39;20521;-80
2021/12/31 00:23:46;;;;;;;1.80;1.67;;;;;;;6.01;68.99;94923.97;2614807;54;20153;-77
2021/12/31 00:26:15;;;;;;;0.63;0.63;;;;;;;6.38;68.43;94986.44;2615108;54;20672;-77
2021/12/31 00:28:44;;;;;;;0.73;0.73;;;;;;;5.50;68.56;94929.59;2614845;39;20595;-78
2021/12/31 00:31:13;;;;;;;1.70;1.70;;;;;;;3.80;69.47;94709.53;2614739;47;20161;-79
2021/12/31 00:33:42;;;;;;;1.33;1.33;;;;;;;5.59;70.59;94968.03;2614987;54;20167;-77
2021/12/31 00:36:22;;;;;;;4.67;2.10;;;;;;;6.02;69.85;95018.19;2614898;54;20153;-80
2021/12/31 00:39:29;;;;;;;1.03;1.03;;;;;;;5.42;69.66;95004.25;2614858;54;20153;-80
2021/12/31 00:41:57;;;;;;;0.93;0.93;;;;;;;4.52;72.02;94892.44;2615196;47;20157;-78
2021/12/31 00:44:26;;;;;;;1.33;1.33;;;;;;;5.83;71.68;95105.66;2615248;54;20173;-77
2021/12/31 00:46:55;;;;;;;1.70;1.60;;;;;;;5.58;72.33;95095.84;2614918;47;20256;-78
2021/12/31 00:49:24;;;;;;;1.10;1.10;;;;;;;3.68;72.49;94821.59;2614657;54;20160;-78
2021/12/31 00:51:53;;;;;;;1.77;1.77;;;;;;;5.42;72.93;95035.16;2615582;54;20153;-79
2021/12/31 00:54:25;;;;;;;0.57;0.57;;;;;;;6.27;71.91;95060.38;2614701;47;20160;-73
2021/12/31 00:56:59;;;;;;;1.40;1.40;;;;;;;6.50;71.24;95053.13;2614335;47;20169;-77
2021/12/31 01:00:02;;;;;;;3.30;2.10;;;;;;;3.85;69.81;94678.34;2614888;54;20163;-76
2021/12/31 01:02:31;;;;;;;1.07;1.07;;;;;;;6.36;68.88;94991.94;2614669;47;20689;-75
2021/12/31 01:05:00;;;;;;;1.30;1.30;;;;;;;6.97;68.15;95054.22;2615010;47;20180;-79
2021/12/31 01:07:29;;;;;;;2.30;2.20;;;;;;;7.22;67.75;95061.13;2614369;47;20183;-79
2021/12/31 01:10:01;;;;;;;1.93;1.83;;;;;;;7.48;66.80;95068.84;2614861;47;20176;-77
2021/12/31 01:12:30;;;;;;;2.00;1.90;;;;;;;7.17;67.11;95005.94;2614296;54;20156;-78
2021/12/31 01:15:03;;;;;;;0.77;0.77;;;;;;;7.57;67.51;95036.16;2614653;54;20153;-78
2021/12/31 01:17:45;;;;;;;1.60;1.50;;;;;;;7.44;65.80;95048.16;2614685;47;20168;-77
2021/12/31 01:20:18;;;;;;;1.47;1.47;;;;;;;5.76;65.55;94848.06;2614888;54;20157;-80
2021/12/31 01:22:47;;;;;;;1.27;1.20;;;;;;;7.30;68.92;95072.81;2612796;54;20159;-76
2021/12/31 01:25:19;;;;;;;1.13;1.13;;;;;;;7.01;68.85;95009.38;2614453;54;20177;-76
2021/12/31 01:27:47;;;;;;;2.47;1.40;;;;;;;7.18;66.74;95072.91;2614086;54;20212;-77
2021/12/31 01:30:16;;;;;;;1.60;1.30;;;;;;;7.21;69.11;95082.22;2613986;54;20178;-77
2021/12/31 01:32:46;;;;;;;2.33;2.23;;;;;;;7.23;67.88;95093.59;2614511;54;20184;-77
2021/12/31 01:35:15;;;;;;;1.17;1.17;;;;;;;7.05;66.49;95082.09;2614204;54;20153;-77
2021/12/31 01:37:44;;;;;;;0.77;0.77;;;;;;;6.69;67.10;95069.66;2616476;31;20668;-77
2021/12/31 01:40:14;;;;;;;0.97;0.97;;;;;;;6.06;67.99;95024.03;2615748;54;20144;-76
2021/12/31 01:42:46;;;;;;;0.77;0.77;;;;;;;6.71;68.71;95081.00;2615584;54;20164;-76
2021/12/31 01:45:20;;;;;;;3.17;0.90;;;;;;;6.40;68.19;95005.50;2615451;54;20144;-77
2021/12/31 01:48:04;;;;;;;0.57;0.57;;;;;;;6.95;66.76;95084.41;2615631;54;20160;-77
2021/12/31 01:50:34;;;;;;;0.90;0.83;;;;;;;6.61;69.47;95038.97;2615589;54;20153;-77
2021/12/31 01:53:03;;;;;;;1.27;1.27;;;;;;;7.12;68.94;95083.88;2615575;54;20188;-77
2021/12/31 01:55:34;;;;;;;1.00;1.00;;;;;;;6.85;68.01;95050.06;2615676;54;20161;-78
2021/12/31 01:58:07;;;;;;;2.73;0.77;;;;;;;7.10;69.82;95101.41;2615730;54;20161;-77
2021/12/31 02:00:37;;;;;;;0.43;0.43;;;;;;;6.19;68.14;95099.28;2615688;54;20168;-79
2021/12/31 02:03:07;;;;;;;0.50;0.50;;;;;;;5.34;70.10;95027.00;2615997;47;20191;-78
2021/12/31 02:05:35;;;;;;;2.07;1.27;;;;;;;5.08;70.78;94994.56;2615952;47;20149;-77
2021/12/31 02:08:06;;;;;;;0.87;0.87;;;;;;;5.71;70.50;95071.97;2615801;54;20177;-77
2021/12/31 02:10:34;;;;;;;1.67;1.57;;;;;;;6.29;71.73;95091.41;2615613;47;20687;-77
2021/12/31 02:13:07;;;;;;;1.60;1.10;;;;;;;6.28;70.91;95073.09;2615757;54;20154;-77
2021/12/31 02:15:36;;;;;;;0.73;0.73;;;;;;;5.96;69.90;95043.91;2615865;47;20169;-77
2021/12/31 02:18:08;;;;;;;0.80;0.80;;;;;;;6.34;70.71;95092.38;2615265;54;20173;-78
2021/12/31 02:20:44;;;;;;;1.23;0.90;;;;;;;5.58;69.20;94979.91;2615745;47;20164;-78
2021/12/31 02:23:17;;;;;;;1.10;1.10;;;;;;;5.82;69.61;95096.50;2615854;54;20161;-76
2021/12/31 02:25:46;;;;;;;0.50;0.50;;;;;;;5.59;69.83;95051.59;2615641;54;20187;-77
2021/12/31 02:28:15;;;;;;;1.27;1.17;;;;;;;6.10;70.51;95102.28;2615766;47;20188;-77
2021/12/31 02:30:44;;;;;;;3.90;1.43;;;;;;;5.75;69.91;95075.00;2615774;54;20140;-77
2021/12/31 02:33:14;;;;;;;0.47;0.47;;;;;;;5.77;70.87;95099.66;2615592;54;20164;-77
2021/12/31 02:35:46;;;;;;;0.77;0.77;;;;;;;5.73;72.35;95103.00;2615710;47;20296;-77
2021/12/31 02:38:15;;;;;;;0.70;0.70;;;;;;;5.21;71.90;95075.38;2615705;54;20133;-77
2021/12/31 02:40:44;;;;;;;1.17;1.17;;;;;;;5.71;71.37;95091.63;2615661;54;20156;-78
2021/12/31 02:43:13;;;;;;;0.50;0.50;;;;;;;5.19;71.46;95106.16;2615893;47;20157;-77
2021/12/31 02:45:42;;;;;;;0.93;0.67;;;;;;;4.88;73.32;95079.06;2615277;54;20180;-77
2021/12/31 02:48:11;;;;;;;0.63;0.63;;;;;;;4.85;72.54;95038.19;2615502;54;20160;-78
2021/12/31 02:50:45;;;;;;;0.40;0.40;;;;;;;5.07;71.94;95091.38;2616021;39;20507;-77
2021/12/31 02:53:16;;;;;;;0.50;0.50;;;;;;;4.77;71.92;95091.03;2616255;54;20168;-77
2021/12/31 02:55:47;;;;;;;0.67;0.67;;;;;;;4.91;73.04;95125.56;2617617;54;20171;-77
2021/12/31 02:58:15;;;;;;;0.50;0.50;;;;;;;4.81;72.29;95121.41;2617301;47;20168;-78
2021/12/31 03:00:45;;;;;;;0.57;0.57;;;;;;;4.83;72.20;95110.28;2615491;47;20771;-78
2021/12/31 03:03:15;;;;;;;1.48;1.38;;;;;;;4.70;72.12;95089.19;2615538;54;20396;-77
2021/12/31 03:05:47;;;;;;;0.80;0.80;;;;;;;4.78;71.01;95103.00;2615658;54;20177;-76
2021/12/31 03:08:18;;;;;;;1.03;1.03;;;;;;;3.92;72.17;95038.81;2615609;54;20168;-76
2021/12/31 03:10:49;;;;;;;0.60;0.60;;;;;;;4.65;72.38;95088.19;2615787;54;20173;-77
2021/12/31 03:13:19;;;;;;;0.87;0.83;;;;;;;4.84;72.11;95128.59;2615427;54;20145;-76
2021/12/31 03:15:47;;;;;;;0.93;0.93;;;;;;;4.86;72.17;95126.66;2615825;54;20155;-79
2021/12/31 03:18:17;;;;;;;0.80;0.80;;;;;;;4.77;71.77;95102.25;2616036;47;20664;-77
2021/12/31 03:20:57;;;;;;;0.40;0.40;;;;;;;4.64;70.98;95100.03;2615890;54;20149;-78
2021/12/31 03:23:26;;;;;;;1.67;1.57;;;;;;;4.71;70.81;95127.13;2615313;54;20184;-78
2021/12/31 03:25:55;;;;;;;0.80;0.80;;;;;;;4.17;71.20;95057.16;2616098;47;20236;-77
2021/12/31 03:28:24;;;;;;;1.60;1.60;;;;;;;4.89;72.23;95131.06;2616017;54;20196;-76
2021/12/31 03:30:53;;;;;;;0.40;0.40;;;;;;;4.62;71.51;95119.56;2616127;47;20172;-77
2021/12/31 03:33:22;;;;;;;0.53;0.53;;;;;;;4.93;72.04;95162.16;2616296;47;20637;-77
2021/12/31 03:35:54;;;;;;;0.50;0.50;;;;;;;4.89;71.19;95145.09;2615863;54;20153;-77
2021/12/31 03:38:23;;;;;;;0.67;0.67;;;;;;;4.72;70.77;95153.13;2615839;54;20169;-77
2021/12/31 03:40:51;;;;;;;0.70;0.70;;;;;;;4.61;72.32;95134.94;2615649;54;20147;-77
2021/12/31 03:43:20;;;;;;;0.63;0.50;;;;;;;4.34;70.32;95100.97;2615557;47;20408;-78
2021/12/31 03:45:50;;;;;;;1.07;0.60;;;;;;;4.91;70.75;95155.72;2615662;54;20153;-76
2021/12/31 03:48:19;;;;;;;1.23;1.23;;;;;;;5.45;70.15;95168.78;2615730;46;20160;-77
2021/12/31 03:50:48;;;;;;;0.40;0.40;;;;;;;5.72;68.22;95166.19;2615624;54;20137;-77
2021/12/31 03:53:20;;;;;;;0.80;0.80;;;;;;;5.86;68.48;95157.84;2615446;47;20195;-76
2021/12/31 03:55:49;;;;;;;1.77;0.97;;;;;;;6.39;69.63;95173.56;2615410;54;20179;-76
2021/12/31 03:58:18;;;;;;;0.97;0.97;;;;;;;6.26;67.24;95179.88;2616832;54;20159;-76
2021/12/31 04:00:47;;;;;;;0.70;0.70;;;;;;;6.02;68.50;95116.59;2616249;47;20177;-77
2021/12/31 04:03:16;;;;;;;0.90;0.90;;;;;;;5.97;65.72;95121.28;2616921;54;20156;-77
2021/12/31 04:05:45;;;;;;;1.70;1.60;;;;;;;5.64;68.72;95092.63;2617290;54;20145;-78
2021/12/31 04:08:14;;;;;;;2.67;1.37;;;;;;;5.79;68.05;95173.59;2616551;47;20165;-78
2021/12/31 04:10:46;;;;;;;1.77;1.67;;;;;;;5.19;67.54;95072.47;2616529;54;20165;-78
2021/12/31 04:13:14;;;;;;;1.33;1.30;;;;;;;5.53;66.37;95150.31;2615307;54;20656;-77
2021/12/31 04:15:44;;;;;;;1.73;0.93;;;;;;;5.81;68.56;95154.06;2615174;54;20169;-77
2021/12/31 04:18:13;;;;;;;0.87;0.87;;;;;;;6.11;69.39;95163.53;2615385;46;20157;-78
2021/12/31 04:20:44;;;;;;;1.50;0.83;;;;;;;6.49;68.22;95164.97;2615173;47;20148;-77
2021/12/31 04:23:27;;;;;;;1.03;1.03;;;;;;;6.33;64.84;95161.97;2615450;47;20164;-76
2021/12/31 04:26:00;;;;;;;0.40;0.40;;;;;;;5.60;66.21;95131.75;2614423;54;20153;-77
2021/12/31 04:28:29;;;;;;;0.87;0.87;;;;;;;5.64;67.42;95151.63;2615380;54;20181;-77
2021/12/31 04:30:59;;;;;;;1.07;1.07;;;;;;;5.68;69.61;95137.81;2615182;47;20160;-77
2021/12/31 04:33:28;;;;;;;0.47;0.47;;;;;;;5.59;66.94;95136.63;2615261;54;20168;-78
2021/12/31 04:35:56;;;;;;;0.60;0.60;;;;;;;5.11;67.14;95109.19;2615286;54;20172;-78
2021/12/31 04:38:25;;;;;;;0.53;0.53;;;;;;;5.60;67.76;95157.03;2614715;47;20169;-78
2021/12/31 04:40:54;;;;;;;0.47;0.47;;;;;;;5.40;66.96;95142.50;2615121;54;20164;-78
2021/12/31 04:43:25;;;;;;;1.25;1.15;;;;;;;5.56;66.84;95139.94;2615025;54;21044;-76
2021/12/31 04:45:54;;;;;;;0.50;0.50;;;;;;;5.83;65.86;95178.75;2615094;54;20207;-77
2021/12/31 04:48:22;;;;;;;1.40;0.83;;;;;;;5.99;68.40;95188.16;2615196;54;20164;-78
2021/12/31 04:50:52;;;;;;;0.47;0.47;;;;;;;5.97;66.94;95124.09;2615337;47;20207;-78
2021/12/31 04:53:20;;;;;;;0.77;0.77;;;;;;;5.88;66.18;95166.38;2614866;47;20169;-77
2021/12/31 04:55:50;;;;;;;1.60;1.60;;;;;;;5.64;66.37;95115.09;2615430;54;20159;-77
2021/12/31 04:58:19;;;;;;;1.23;1.17;;;;;;;5.75;65.86;95155.75;2615206;54;20184;-78
2021/12/31 05:00:50;;;;;;;2.37;1.33;;;;;;;4.93;65.05;95051.97;2615220;54;20160;-77
2021/12/31 05:03:20;;;;;;;0.60;0.60;;;;;;;5.55;67.61;95172.91;2615401;54;20161;-77
2021/12/31 05:05:48;;;;;;;0.70;0.70;;;;;;;5.18;66.36;95111.03;2615246;47;20169;-78
2021/12/31 05:08:19;;;;;;;1.33;1.27;;;;;;;5.97;66.32;95174.69;2615110;54;20141;-77
2021/12/31 05:10:47;;;;;;;1.27;1.27;;;;;;;6.30;68.83;95159.66;2615115;54;20281;-76
2021/12/31 05:13:18;;;;;;;0.40;0.40;;;;;;;6.74;66.08;95172.66;2616042;54;20153;-78
2021/12/31 05:15:52;;;;;;;0.50;0.50;;;;;;;6.38;63.04;95177.75;2616104;47;20196;-77
2021/12/31 05:18:21;;;;;;;0.50;0.50;;;;;;;6.13;66.09;95162.91;2616249;54;20151;-77
2021/12/31 05:20:50;;;;;;;1.60;1.03;;;;;;;6.10;63.45;95190.19;2616289;54;20164;-77
2021/12/31 05:23:18;;;;;;;1.23;1.23;;;;;;;6.86;67.90;95187.41;2616219;54;20703;-76
2021/12/31 05:25:47;;;;;;;1.17;1.17;;;;;;;6.99;67.23;95180.34;2615285;54;20439;-76
2021/12/31 05:28:16;;;;;;;0.60;0.60;;;;;;;6.91;64.41;95186.28;2616034;47;21014;-77
2021/12/31 05:30:45;;;;;;;0.80;0.80;;;;;;;6.84;66.00;95181.66;2615889;54;20152;-77
2021/12/31 05:33:16;;;;;;;1.33;1.23;;;;;;;6.40;62.29;95146.91;2615806;54;20503;-77
2021/12/31 05:35:45;;;;;;;0.80;0.80;;;;;;;6.20;64.80;95083.16;2616078;47;20982;-75
2021/12/31 05:38:14;;;;;;;0.70;0.70;;;;;;;6.27;63.27;95172.91;2615944;47;20173;-77
2021/12/31 05:40:42;;;;;;;0.57;0.57;;;;;;;5.86;64.17;95090.38;2616014;39;20825;-76
2021/12/31 05:43:11;;;;;;;0.90;0.90;;;;;;;6.49;63.57;95170.59;2615910;54;20196;-77
2021/12/31 05:45:39;;;;;;;0.60;0.60;;;;;;;6.01;63.68;95186.16;2615830;47;20187;-78
2021/12/31 05:48:08;;;;;;;1.23;1.13;;;;;;;5.40;65.04;95176.22;2615927;54;20164;-77
2021/12/31 05:50:39;;;;;;;0.67;0.67;;;;;;;5.06;67.79;95140.47;2615774;54;20169;-77
2021/12/31 05:53:08;;;;;;;0.60;0.60;;;;;;;5.19;67.52;95177.09;2615921;54;20224;-78
2021/12/31 05:55:37;;;;;;;0.60;0.60;;;;;;;4.98;66.82;95144.22;2616169;54;20160;-78
2021/12/31 05:58:06;;;;;;;0.70;0.70;;;;;;;5.29;69.67;95194.56;2615988;54;20168;-77
2021/12/31 06:00:35;;;;;;;1.03;0.97;;;;;;;5.67;69.48;95204.53;2615777;54;20161;-77
2021/12/31 06:03:03;;;;;;;0.43;0.43;;;;;;;5.67;65.13;95198.19;2615885;54;20141;-77
2021/12/31 06:05:32;;;;;;;0.57;0.57;;;;;;;5.46;66.07;95207.50;2615834;54;20695;-77
2021/12/31 06:08:03;;;;;;;0.90;0.90;;;;;;;5.58;68.63;95196.97;2615836;54;20703;-76
2021/12/31 06:10:34;;;;;;;1.00;1.00;;;;;;;6.32;70.35;95218.84;2615900;47;20207;-77
2021/12/31 06:13:03;;;;;;;1.93;1.93;;;;;;;6.65;66.46;95176.38;2615925;54;20272;-77
2021/12/31 06:15:33;;;;;;;0.47;0.47;;;;;;;6.28;62.78;95213.75;2615662;54;20257;-77
2021/12/31 06:18:01;;;;;;;1.50;1.30;;;;;;;6.78;65.91;95198.97;2616147;54;20775;-78
2021/12/31 06:20:31;;;;;;;1.20;1.20;;;;;;;6.12;63.73;95161.44;2615577;54;20195;-78
2021/12/31 06:23:00;;;;;;;1.47;1.47;;;;;;;6.33;67.75;95167.59;2614895;47;20264;-76
2021/12/31 06:25:32;;;;;;;1.00;1.00;;;;;;;7.10;66.57;95236.63;2615986;54;20240;-77
2021/12/31 06:28:02;;;;;;;1.90;1.23;;;;;;;7.27;66.29;95192.38;2616132;54;20156;-77
2021/12/31 06:30:31;;;;;;;1.10;1.10;;;;;;;7.35;63.76;95204.84;2616345;54;20159;-78
2021/12/31 06:33:00;;;;;;;1.50;1.40;;;;;;;7.94;61.81;95247.34;2615795;47;20165;-77
2021/12/31 06:35:29;;;;;;;0.60;0.60;;;;;;;7.89;64.71;95228.06;2615862;54;20169;-77
2021/12/31 06:37:59;;;;;;;1.20;1.20;;;;;;;7.49;59.67;95236.59;2615377;54;20161;-78
2021/12/31 06:40:29;;;;;;;1.03;1.03;;;;;;;7.21;62.25;95234.34;2615421;54;20161;-78
2021/12/31 06:43:00;;;;;;;1.23;1.23;;;;;;;7.65;63.35;95247.25;2615664;47;20141;-76
2021/12/31 06:45:30;;;;;;;0.97;0.97;;;;;;;7.58;62.32;95234.94;2615243;54;20157;-76
2021/12/31 06:47:59;;;;;;;2.70;2.50;;;;;;;7.29;63.30;95172.78;2615939;54;20380;-76
2021/12/31 06:50:28;;;;;;;0.93;0.93;;;;;;;7.34;63.04;95194.94;2615345;47;20676;-77
2021/12/31 06:52:56;;;;;;;1.03;1.03;;;;;;;7.70;61.66;95244.00;2615331;54;20192;-76
2021/12/31 06:55:25;;;;;;;3.13;2.50;;;;;;;7.43;61.20;95243.97;2615514;54;20684;-76
2021/12/31 06:57:54;;;;;;;1.33;1.33;;;;;;;6.98;61.94;95204.94;2615403;54;20200;-76
2021/12/31 07:00:25;;;;;;;0.53;0.53;;;;;;;6.47;62.21;95181.00;2615398;54;20215;-76
2021/12/31 07:03:05;;;;;;;0.30;0.30;;;;;;;6.57;64.58;95237.84;2615039;46;20287;-76
2021/12/31 07:05:34;;;;;;;1.23;1.23;;;;;;;6.49;64.89;95234.56;2615887;39;20582;-77
2021/12/31 07:08:19;;;;;;;1.00;1.00;;;;;;;6.03;65.17;95179.91;2615198;54;20184;-85
2021/12/31 07:13:37;;;;;;;0.70;0.70;;;;;;;3.09;65.51;94829.19;2617818;54;20160;-83
2021/12/31 07:16:09;;;;;;;0.50;0.50;;;;;;;4.89;66.65;95103.00;2617603;54;20179;-81
2021/12/31 07:18:52;;;;;;;0.57;0.57;;;;;;;5.43;66.68;95124.44;2617050;47;20161;-83
2021/12/31 07:21:32;;;;;;;0.40;0.40;;;;;;;3.65;65.86;94859.22;2617914;54;20145;-83
2021/12/31 07:27:19;;;;;;;0.50;0.50;;;;;;;4.00;65.21;94834.00;2617157;46;20404;-86
2021/12/31 07:32:49;;;;;;;0.60;0.60;;;;;;;5.16;65.05;95028.75;2615883;47;20176;-80
2021/12/31 07:35:18;;;;;;;0.63;0.63;;;;;;;6.22;65.54;95182.44;2616328;54;20152;-77
2021/12/31 07:37:46;;;;;;;0.47;0.47;;;;;;;6.54;66.37;95230.66;2615586;47;20249;-75
2021/12/31 07:40:24;;;;;;;0.93;0.93;;;;;;;6.22;66.20;95176.81;2615464;54;20156;-74
2021/12/31 07:42:53;;;;;;;0.50;0.50;;;;;;;6.19;65.70;95214.59;2615308;47;20153;-76
2021/12/31 07:45:23;;;;;;;0.77;0.77;;;;;;;6.52;65.69;95224.91;2615180;54;20977;-76
2021/12/31 07:47:54;;;;;;;0.60;0.60;;;;;;;6.73;65.07;95227.50;2615364;47;20427;-76
2021/12/31 07:50:23;;;;;;;0.30;0.30;;;;;;;6.14;64.58;95162.31;2615426;54;20165;-77
2021/12/31 07:52:52;;;;;;;0.57;0.57;;;;;;;5.65;65.14;95077.22;2615586;54;20153;-77
2021/12/31 07:55:21;;;;;;;0.60;0.60;;;;;;;6.18;64.59;95176.56;2615434;47;20191;-78
2021/12/31 07:57:50;;;;;;;0.50;0.50;;;;;;;6.72;65.59;95231.66;2615465;54;20184;-72
2021/12/31 08:00:19;;;;;;;0.30;0.30;;;;;;;6.70;65.06;95201.31;2615732;54;20213;-76
2021/12/31 08:02:48;;;;;;;0.30;0.30;;;;;;;6.50;64.42;95180.50;2615751;47;20164;-77
2021/12/31 08:05:24;;;;;;;1.03;1.03;;;;;;;5.98;64.91;95107.94;2615627;54;20664;-78
2021/12/31 08:07:53;;;;;;;1.80;0.75;;;;;;;5.84;63.91;95098.69;2615645;54;20403;-78
2021/12/31 08:10:29;;;;;;;0.57;0.57;;;;;;;6.39;64.05;95167.22;2614896;47;20179;-80
2021/12/31 08:12:58;;;;;;;0.90;0.90;;;;;;;5.34;64.69;95036.16;2615606;47;20206;-78
2021/12/31 08:15:27;;;;;;;0.47;0.47;;;;;;;6.32;64.52;95168.22;2615739;54;20173;-79
2021/12/31 08:17:56;;;;;;;0.63;0.60;;;;;;;6.52;63.51;95196.75;2615573;54;20161;-78
2021/12/31 08:20:28;;;;;;;0.70;0.70;;;;;;;6.92;65.38;95201.81;2615387;47;20161;-76
2021/12/31 08:23:00;;;;;;;0.50;0.50;;;;;;;7.08;63.90;95208.34;2615744;47;20211;-76
2021/12/31 08:25:29;;;;;;;0.60;0.60;;;;;;;6.81;65.43;95202.63;2616726;47;20164;-76
2021/12/31 08:27:57;;;;;;;0.70;0.70;;;;;;;7.47;63.10;95241.38;2616676;54;20724;-77
2021/12/31 08:30:26;;;;;;;1.13;1.13;;;;;;;7.95;62.53;95256.56;2615921;54;20207;-78
2021/12/31 08:32:55;;;;;;;0.50;0.50;;;;;;;8.19;61.25;95257.81;2615643;54;20698;-76
2021/12/31 08:35:24;;;;;;;1.17;1.17;;;;;;;8.13;61.67;95179.22;2615260;54;20149;-76
2021/12/31 08:37:56;;;;;;;0.93;0.93;;;;;;;9.17;60.42;95218.09;2615035;47;20184;-77
2021/12/31 08:40:25;;;;;;;2.30;1.57;;;;;;;9.39;59.35;95249.50;2615646;54;20153;-79
2021/12/31 08:42:54;;;;;;;1.00;1.00;;;;;;;9.84;59.97;95243.78;2615568;54;20165;-77
2021/12/31 08:45:24;;;;;;;1.27;1.27;;;;;;;9.84;58.86;95224.69;2615208;39;20559;-75
2021/12/31 08:47:53;;;;;;;1.63;1.53;;;;;;;9.62;57.56;95235.75;2614045;47;20195;-73
2021/12/31 08:50:22;;;;;;;1.65;1.55;;;;;;;9.91;57.88;95197.41;2614444;47;20479;-72
2021/12/31 08:52:51;;;;;;;1.60;1.20;;;;;;;10.18;56.48;95228.31;2614775;54;21436;-72
2021/12/31 08:55:23;;;;;;;4.30;2.93;;;;;;;9.98;55.92;95151.00;2615411;54;20153;-73
2021/12/31 08:57:51;;;;;;;0.90;0.90;;;;;;;10.79;55.88;95230.13;2615434;54;20180;-72
2021/12/31 09:00:20;;;;;;;0.77;0.77;;;;;;;10.40;56.66;95203.03;2615424;54;20157;-73
2021/12/31 09:02:50;;;;;;;1.13;1.13;;;;;;;10.53;57.04;95229.75;2615400;47;20607;-71
2021/12/31 09:05:19;;;;;;;1.00;1.00;;;;;;;10.10;56.30;95184.78;2615268;47;20149;-72
2021/12/31 09:07:47;;;;;;;1.57;1.47;;;;;;;10.40;53.63;95197.38;2615466;54;20748;-73
2021/12/31 09:10:34;;;;;;;1.00;1.00;;;;;;;10.65;55.46;95207.63;2613153;54;20149;-80
2021/12/31 09:13:03;;;;;;;2.13;1.63;;;;;;;10.90;54.78;95229.88;2615627;54;20161;-78
2021/12/31 09:15:31;;;;;;;2.33;2.23;;;;;;;11.04;56.90;95221.97;2614888;54;20145;-77
2021/12/31 09:18:00;;;;;;;1.43;1.43;;;;;;;11.20;57.80;95204.84;2615424;47;20171;-76
2021/12/31 09:20:29;;;;;;;2.10;1.33;;;;;;;11.45;54.35;95205.78;2614982;54;20153;-75
2021/12/31 09:22:58;;;;;;;2.30;1.97;;;;;;;11.64;51.92;95219.25;2613366;47;20215;-74
2021/12/31 09:25:27;;;;;;;2.03;1.53;;;;;;;11.35;51.73;95211.78;2614030;54;20188;-80
2021/12/31 09:27:58;;;;;;;2.70;1.60;;;;;;;10.86;52.95;95203.50;2614658;54;20199;-75
2021/12/31 09:30:27;;;;;;;1.40;1.30;;;;;;;11.15;55.95;95196.84;2615073;47;20172;-74
2021/12/31 09:33:03;;;;;;;4.40;2.03;;;;;;;11.26;54.92;95215.69;2614126;47;20192;-78
